Time;durP1;ratioP1;P1;durP2;ratioP2;P2;SDS_P1;SDS_P2;PMS_P1;PMS_P2;Temp;Humidity;BMP_temperature;BMP_pressure;BME280_temperature;BME280_humidity;BME280_pressure;Samples;Min_cycle;Max_cycle;Signal;HPM_P1;HPM_P2
2021/07/22 00:00:33;;;;;;;7.58;5.28;;;;;;;16.70;70.13;97122.86;1772122;80;21225;-79
2021/07/22 00:03:01;;;;;;;8.78;5.00;;;;;;;16.68;69.98;97121.76;1773319;80;21012;-78
2021/07/22 00:05:27;;;;;;;7.40;5.03;;;;;;;16.67;69.93;97128.02;1767039;79;20970;-79
2021/07/22 00:08:01;;;;;;;6.75;4.78;;;;;;;16.64;69.99;97125.77;1767963;79;21208;-78
2021/07/22 00:10:27;;;;;;;6.12;4.60;;;;;;;16.62;70.06;97124.36;1760828;79;20937;-78
2021/07/22 00:12:52;;;;;;;6.80;5.15;;;;;;;16.58;69.72;97127.87;1768291;79;21217;-79
2021/07/22 00:15:18;;;;;;;7.42;4.40;;;;;;;16.56;69.72;97126.45;1762466;79;20944;-79
2021/07/22 00:17:44;;;;;;;6.28;4.25;;;;;;;16.58;69.78;97122.62;1770876;79;20939;-78
2021/07/22 00:20:10;;;;;;;6.85;4.65;;;;;;;16.59;69.71;97120.30;1754175;80;21289;-78
2021/07/22 00:22:38;;;;;;;5.35;4.65;;;;;;;16.58;69.62;97123.12;1745261;81;20946;-78
2021/07/22 00:25:05;;;;;;;7.22;4.53;;;;;;;16.54;69.62;97127.17;1751492;80;20919;-78
2021/07/22 00:27:31;;;;;;;5.45;4.35;;;;;;;16.47;69.79;97120.61;1761013;80;20940;-78
2021/07/22 00:29:57;;;;;;;7.80;5.20;;;;;;;16.48;69.92;97130.91;1746420;80;20943;-78
2021/07/22 00:32:22;;;;;;;6.12;5.08;;;;;;;16.43;69.84;97124.62;1755871;80;20950;-78
2021/07/22 00:34:48;;;;;;;6.25;4.80;;;;;;;16.41;69.96;97129.27;1773014;80;20956;-78
2021/07/22 00:37:14;;;;;;;5.95;4.45;;;;;;;16.40;70.17;97121.09;1711390;80;20895;-78
2021/07/22 00:39:40;;;;;;;6.85;4.85;;;;;;;16.41;70.04;97124.02;1768887;80;20875;-78
2021/07/22 00:42:05;;;;;;;5.92;4.40;;;;;;;16.40;70.10;97115.34;1778058;79;20966;-78
2021/07/22 00:44:31;;;;;;;5.20;4.55;;;;;;;16.42;70.24;97116.45;1775277;79;21220;-79
2021/07/22 00:46:57;;;;;;;6.65;4.33;;;;;;;16.40;70.25;97116.66;1776877;79;20875;-79
2021/07/22 00:49:22;;;;;;;6.42;4.72;;;;;;;16.39;70.18;97120.29;1774409;79;20935;-78
2021/07/22 00:51:48;;;;;;;6.72;4.53;;;;;;;16.38;70.22;97114.74;1779934;79;21254;-79
2021/07/22 00:54:14;;;;;;;6.97;4.90;;;;;;;16.35;70.08;97115.66;1773092;79;20875;-78
2021/07/22 00:56:40;;;;;;;6.22;4.47;;;;;;;16.28;70.21;97116.97;1772799;79;20999;-78
2021/07/22 00:59:06;;;;;;;6.40;4.47;;;;;;;16.25;70.30;97123.09;1778518;79;21185;-78
2021/07/22 01:01:32;;;;;;;5.58;4.30;;;;;;;16.19;70.09;97112.40;1774448;79;20875;-79
2021/07/22 01:03:58;;;;;;;6.17;4.12;;;;;;;16.17;70.19;97111.80;1775823;79;20942;-79
2021/07/22 01:06:24;;;;;;;6.25;4.03;;;;;;;16.17;70.28;97117.03;1774470;79;20890;-78
2021/07/22 01:08:49;;;;;;;6.80;4.40;;;;;;;16.16;70.25;97112.80;1775360;79;21010;-78
2021/07/22 01:11:16;;;;;;;5.67;4.65;;;;;;;16.15;70.29;97114.31;1773509;79;20977;-78
2021/07/22 01:13:41;;;;;;;6.90;4.45;;;;;;;16.11;70.28;97113.91;1777363;79;21330;-78
2021/07/22 01:16:07;;;;;;;6.10;4.80;;;;;;;16.07;70.38;97113.98;1741259;81;20976;-79
2021/07/22 01:18:33;;;;;;;7.00;5.28;;;;;;;16.04;70.23;97112.27;1741173;82;20907;-78
2021/07/22 01:20:58;;;;;;;6.08;4.30;;;;;;;16.02;70.39;97118.20;1772145;79;20915;-78
2021/07/22 01:23:24;;;;;;;8.88;4.80;;;;;;;16.03;70.53;97112.77;1733164;81;21287;-78
2021/07/22 01:25:51;;;;;;;5.97;4.58;;;;;;;16.06;70.61;97121.54;1766612;79;20970;-78
2021/07/22 01:28:17;;;;;;;5.65;4.22;;;;;;;16.08;70.64;97120.03;1776933;79;21236;-79
2021/07/22 01:30:43;;;;;;;7.17;4.97;;;;;;;16.06;70.66;97124.16;1771779;79;20965;-79
2021/07/22 01:33:09;;;;;;;7.28;5.42;;;;;;;16.06;70.64;97116.80;1770487;79;20945;-78
2021/07/22 01:35:37;;;;;;;6.30;4.85;;;;;;;16.06;70.70;97118.11;1773730;79;21218;-78
2021/07/22 01:38:03;;;;;;;5.10;4.10;;;;;;;16.05;70.81;97117.30;1778302;79;20931;-78
2021/07/22 01:40:28;;;;;;;6.80;5.15;;;;;;;16.04;70.82;97118.31;1778002;79;20922;-79
2021/07/22 01:42:54;;;;;;;5.97;4.60;;;;;;;16.05;70.86;97119.13;1775907;79;21037;-79
2021/07/22 01:45:20;;;;;;;7.65;4.40;;;;;;;16.08;71.03;97117.41;1770695;79;20911;-78
2021/07/22 01:47:46;;;;;;;6.72;4.95;;;;;;;16.10;70.94;97120.13;1774517;79;20953;-78
2021/07/22 01:50:12;;;;;;;8.03;5.28;;;;;;;16.09;70.81;97129.00;1774216;79;20971;-78
2021/07/22 01:52:38;;;;;;;8.50;5.10;;;;;;;16.06;70.90;97120.73;1776080;79;21253;-78
2021/07/22 01:55:05;;;;;;;5.47;4.55;;;;;;;16.03;70.97;97118.52;1778794;79;20991;-78
2021/07/22 01:57:32;;;;;;;6.20;4.72;;;;;;;16.01;71.03;97120.53;1779900;79;20986;-78
2021/07/22 02:00:04;;;;;;;8.48;4.87;;;;;;;16.00;71.10;97113.17;1775812;79;21276;-79
2021/07/22 02:02:25;;;;;;;6.75;4.67;;;;;;;16.01;71.16;97114.78;1778743;79;20917;-78
2021/07/22 02:04:51;;;;;;;6.30;4.87;;;;;;;16.04;71.08;97116.19;1772747;79;21339;-78
2021/07/22 02:07:17;;;;;;;6.30;5.08;;;;;;;16.02;71.15;97124.26;1772799;79;21278;-79
2021/07/22 02:09:43;;;;;;;6.28;4.92;;;;;;;16.01;71.04;97123.95;1772087;79;20890;-78
2021/07/22 02:12:09;;;;;;;7.58;5.67;;;;;;;16.00;71.29;97120.22;1773364;79;20901;-78
2021/07/22 02:14:36;;;;;;;9.38;5.42;;;;;;;15.97;71.45;97122.74;1772385;79;21264;-79
2021/07/22 02:17:02;;;;;;;6.42;4.58;;;;;;;15.96;71.55;97122.94;1772375;79;20899;-79
2021/07/22 02:19:28;;;;;;;6.55;4.55;;;;;;;15.97;71.72;97124.05;1772356;79;20958;-78
2021/07/22 02:21:53;;;;;;;7.22;5.45;;;;;;;16.00;71.75;97126.27;1773331;79;20902;-78
2021/07/22 02:24:20;;;;;;;7.33;5.58;;;;;;;16.02;71.76;97120.83;1776115;79;21018;-77
2021/07/22 02:26:46;;;;;;;8.70;5.60;;;;;;;16.01;71.89;97121.84;1776690;79;20931;-78
2021/07/22 02:29:11;;;;;;;8.38;5.83;;;;;;;16.01;71.98;97125.77;1776842;79;20904;-78
2021/07/22 02:31:37;;;;;;;7.97;5.72;;;;;;;16.03;72.11;97124.56;1770800;79;21302;-78
2021/07/22 02:34:03;;;;;;;7.65;6.22;;;;;;;16.01;72.05;97122.64;1775448;79;20892;-78
2021/07/22 02:36:29;;;;;;;10.85;5.70;;;;;;;15.99;72.10;97131.21;1777437;79;20987;-79
2021/07/22 02:38:55;;;;;;;7.50;5.22;;;;;;;16.01;72.22;97125.77;1784117;79;21205;-78
2021/07/22 02:41:21;;;;;;;7.90;5.70;;;;;;;16.04;72.24;97125.37;1774383;79;20941;-79
2021/07/22 02:43:46;;;;;;;6.25;5.33;;;;;;;16.05;72.15;97127.79;1775924;79;20947;-79
2021/07/22 02:46:12;;;;;;;7.83;5.87;;;;;;;16.07;72.25;97127.09;1777980;79;20904;-79
2021/07/22 02:48:38;;;;;;;6.55;5.22;;;;;;;16.05;72.08;97133.03;1768135;79;20892;-79
2021/07/22 02:51:06;;;;;;;7.12;5.90;;;;;;;16.02;72.14;97128.70;1771288;79;20920;-79
2021/07/22 02:53:32;;;;;;;7.10;5.30;;;;;;;15.99;72.14;97128.59;1778889;79;20928;-79
2021/07/22 02:55:59;;;;;;;8.50;5.78;;;;;;;15.97;72.28;97129.30;1775541;79;20925;-79
2021/07/22 02:58:26;;;;;;;6.62;4.75;;;;;;;15.98;72.28;97132.72;1752933;80;20948;-79
2021/07/22 03:00:51;;;;;;;7.15;5.45;;;;;;;15.99;72.22;97136.45;1705732;81;21000;-79
2021/07/22 03:03:17;;;;;;;7.33;5.62;;;;;;;15.99;72.07;97132.52;1759901;80;21036;-79
2021/07/22 03:05:43;;;;;;;9.55;5.92;;;;;;;15.99;72.31;97131.72;1742161;81;20982;-79
2021/07/22 03:08:09;;;;;;;7.17;4.92;;;;;;;15.98;72.25;97132.72;1775246;80;21013;-79
2021/07/22 03:10:35;;;;;;;9.05;5.15;;;;;;;15.96;72.21;97132.11;1774494;80;21231;-79
2021/07/22 03:13:00;;;;;;;7.50;6.05;;;;;;;15.92;72.25;97132.98;1771738;80;20907;-79
2021/07/22 03:15:26;;;;;;;7.70;5.03;;;;;;;15.88;72.29;97132.58;1782624;80;20895;-79
2021/07/22 03:17:52;;;;;;;7.97;5.28;;;;;;;15.86;72.43;97131.97;1776032;79;20931;-79
2021/07/22 03:20:18;;;;;;;6.15;5.30;;;;;;;15.88;72.65;97128.64;1768333;80;21209;-79
2021/07/22 03:22:43;;;;;;;7.80;6.20;;;;;;;15.88;72.73;97133.08;1742087;81;20875;-79
2021/07/22 03:25:10;;;;;;;7.17;6.12;;;;;;;15.88;72.92;97129.15;1742645;81;20946;-79
2021/07/22 03:27:36;;;;;;;7.55;5.95;;;;;;;15.86;72.86;97128.55;1737903;81;21022;-79
2021/07/22 03:30:01;;;;;;;9.08;5.65;;;;;;;15.82;72.94;97128.13;1739777;81;21003;-79
2021/07/22 03:32:27;;;;;;;7.65;6.25;;;;;;;15.79;73.07;97131.66;1772945;80;20951;-79
2021/07/22 03:34:53;;;;;;;9.03;6.53;;;;;;;15.82;73.18;97137.81;1744964;81;21007;-79
2021/07/22 03:37:19;;;;;;;7.30;6.00;;;;;;;15.83;73.16;97136.80;1772728;80;20948;-79
2021/07/22 03:39:44;;;;;;;9.15;6.03;;;;;;;15.84;73.26;97136.61;1775731;80;21005;-79
2021/07/22 03:42:10;;;;;;;6.70;6.00;;;;;;;15.87;73.31;97138.02;1778709;80;20917;-79
2021/07/22 03:44:36;;;;;;;8.25;6.00;;;;;;;15.85;73.32;97134.79;1787376;80;20997;-79
2021/07/22 03:47:03;;;;;;;8.25;6.03;;;;;;;15.85;73.58;97141.34;1780725;79;20938;-79
2021/07/22 03:49:29;;;;;;;9.25;6.03;;;;;;;15.86;73.70;97141.64;1770547;79;20892;-79
2021/07/22 03:51:55;;;;;;;6.85;5.33;;;;;;;15.90;73.78;97141.55;1747528;81;20979;-79
2021/07/22 03:54:21;;;;;;;7.95;5.47;;;;;;;15.94;73.69;97140.15;1772114;80;20967;-79
2021/07/22 03:56:47;;;;;;;8.20;6.50;;;;;;;15.96;73.67;97139.48;1747337;81;21269;-79
2021/07/22 03:59:19;;;;;;;7.30;6.25;;;;;;;16.00;73.76;97137.27;1774423;79;20935;-79
2021/07/22 04:01:45;;;;;;;9.03;6.28;;;;;;;15.99;73.86;97140.39;1768009;79;20939;-79
2021/07/22 04:04:11;;;;;;;9.43;6.53;;;;;;;15.98;73.89;97141.89;1755040;80;20996;-79
2021/07/22 04:06:37;;;;;;;7.30;5.33;;;;;;;15.98;74.00;97137.97;1737238;80;20959;-78
2021/07/22 04:09:06;;;;;;;7.87;5.60;;;;;;;16.01;74.03;97138.88;1742893;80;21289;-79
2021/07/22 04:11:35;;;;;;;8.30;6.78;;;;;;;16.07;74.01;97136.77;1757011;80;21186;-78
2021/07/22 04:14:01;;;;;;;8.98;6.55;;;;;;;16.11;73.97;97138.01;1769318;80;21214;-78
2021/07/22 04:16:26;;;;;;;8.93;5.75;;;;;;;16.14;74.13;97143.66;1764556;80;20905;-78
2021/07/22 04:18:52;;;;;;;7.83;6.17;;;;;;;16.15;74.13;97135.28;1765350;80;20944;-78
2021/07/22 04:21:18;;;;;;;9.68;6.55;;;;;;;16.16;74.23;97139.02;1764170;80;21002;-78
2021/07/22 04:23:43;;;;;;;8.55;6.75;;;;;;;16.18;74.35;97137.51;1763155;80;21306;-78
2021/07/22 04:26:16;;;;;;;8.73;5.97;;;;;;;16.21;74.41;97131.36;1757279;81;20919;-78
2021/07/22 04:28:43;;;;;;;8.30;5.92;;;;;;;16.29;74.37;97136.13;1759923;81;21341;-78
2021/07/22 04:31:08;;;;;;;6.83;6.00;;;;;;;16.35;74.41;97136.63;1766440;80;20936;-78
2021/07/22 04:33:34;;;;;;;10.95;6.58;;;;;;;16.40;74.39;97138.14;1768091;80;20975;-78
2021/07/22 04:36:00;;;;;;;8.63;6.97;;;;;;;16.41;74.47;97132.70;1761778;80;21218;-78
2021/07/22 04:38:25;;;;;;;6.95;5.80;;;;;;;16.45;74.49;97131.81;1764240;80;20948;-78
2021/07/22 04:40:52;;;;;;;8.45;6.03;;;;;;;16.47;74.50;97135.05;1761243;80;20997;-78
2021/07/22 04:43:17;;;;;;;9.50;6.40;;;;;;;16.51;74.59;97137.05;1761977;80;21306;-78
2021/07/22 04:45:43;;;;;;;6.80;6.05;;;;;;;16.58;74.57;97140.17;1763456;81;20904;-78
2021/07/22 04:48:11;;;;;;;8.38;6.33;;;;;;;16.64;74.54;97137.58;1767421;80;20980;-79
2021/07/22 04:50:37;;;;;;;7.28;6.05;;;;;;;16.72;74.87;97144.45;1755768;80;21018;-78
2021/07/22 04:53:03;;;;;;;7.72;6.03;;;;;;;16.76;74.79;97146.50;1769966;80;21282;-78
2021/07/22 04:55:28;;;;;;;9.00;6.28;;;;;;;16.78;74.76;97143.16;1764361;80;20992;-78
2021/07/22 04:57:59;;;;;;;8.65;6.10;;;;;;;16.83;74.91;97146.99;1766431;80;21000;-79
2021/07/22 05:00:24;;;;;;;8.88;5.70;;;;;;;16.90;74.88;97144.66;1730770;81;20949;-79
2021/07/22 05:02:52;;;;;;;8.65;6.40;;;;;;;16.96;74.88;97152.24;1739791;80;20975;-78
2021/07/22 05:05:18;;;;;;;7.45;6.30;;;;;;;16.99;74.90;97146.58;1688068;82;20958;-79
2021/07/22 05:07:44;;;;;;;8.00;6.80;;;;;;;17.01;74.79;97149.81;1681376;82;20957;-78
2021/07/22 05:10:11;;;;;;;8.90;6.78;;;;;;;17.05;74.81;97151.01;1721577;82;20995;-78
2021/07/22 05:12:36;;;;;;;8.68;6.55;;;;;;;17.03;74.75;97148.59;1710220;82;21008;-78
2021/07/22 05:15:02;;;;;;;9.53;5.80;;;;;;;17.06;74.75;97151.31;1744866;81;20931;-78
2021/07/22 05:17:28;;;;;;;8.30;6.75;;;;;;;17.07;74.67;97150.30;1745485;81;21006;-78
2021/07/22 05:19:54;;;;;;;9.90;6.50;;;;;;;17.10;74.76;97149.91;1743472;81;20995;-78
2021/07/22 05:22:21;;;;;;;8.45;6.37;;;;;;;17.11;74.61;97147.59;1749199;81;20948;-78
2021/07/22 05:24:47;;;;;;;7.97;6.95;;;;;;;17.14;74.72;97146.37;1746025;81;20956;-79
2021/07/22 05:27:16;;;;;;;9.00;6.97;;;;;;;17.16;74.73;97150.41;1744213;81;20983;-78
2021/07/22 05:29:42;;;;;;;11.55;6.53;;;;;;;17.15;74.61;97146.16;1743778;81;20954;-78
2021/07/22 05:32:08;;;;;;;8.38;6.78;;;;;;;17.18;74.67;97145.75;1747662;81;20979;-78
2021/07/22 05:34:33;;;;;;;10.23;6.80;;;;;;;17.23;74.26;97151.69;1748307;81;21216;-78
2021/07/22 05:36:59;;;;;;;7.40;6.12;;;;;;;17.29;74.19;97150.89;1748826;81;20950;-78
2021/07/22 05:39:25;;;;;;;8.30;6.83;;;;;;;17.32;74.15;97153.10;1744877;81;20930;-78
2021/07/22 05:41:51;;;;;;;8.60;6.58;;;;;;;17.31;74.08;97148.86;1729477;81;20974;-78
2021/07/22 05:44:16;;;;;;;8.95;6.90;;;;;;;17.30;74.28;97151.19;1735301;81;21215;-78
2021/07/22 05:46:42;;;;;;;9.18;6.25;;;;;;;17.32;74.58;97150.48;1722351;82;20995;-78
2021/07/22 05:49:08;;;;;;;8.45;5.87;;;;;;;17.35;74.61;97157.94;1745763;81;21651;-78
2021/07/22 05:51:34;;;;;;;10.38;7.78;;;;;;;17.33;74.53;97154.20;1736425;81;21319;-78
2021/07/22 05:53:59;;;;;;;12.95;7.95;;;;;;;17.40;74.47;97152.36;1699429;82;20995;-78
2021/07/22 05:56:25;;;;;;;13.00;9.30;;;;;;;17.45;74.01;97151.77;1720925;82;20899;-78
2021/07/22 05:58:53;;;;;;;11.88;8.83;;;;;;;17.49;73.73;97149.53;1710629;82;20979;-80
2021/07/22 06:01:19;;;;;;;13.85;9.03;;;;;;;17.52;73.74;97147.80;1713873;81;20940;-78
2021/07/22 06:03:45;;;;;;;12.98;8.90;;;;;;;17.58;73.83;97153.55;1736865;81;20924;-78
2021/07/22 06:06:11;;;;;;;10.08;7.80;;;;;;;17.65;73.82;97157.77;1736494;81;20986;-77
2021/07/22 06:08:37;;;;;;;11.50;8.13;;;;;;;17.75;73.59;97149.99;1759739;79;20888;-78
2021/07/22 06:11:07;;;;;;;11.43;8.35;;;;;;;17.80;73.24;97154.91;1746057;80;20975;-78
2021/07/22 06:13:33;;;;;;;10.72;8.35;;;;;;;17.85;72.78;97156.40;1752072;80;20996;-78
2021/07/22 06:16:01;;;;;;;10.58;8.03;;;;;;;17.87;72.13;97150.42;1742929;80;20957;-78
2021/07/22 06:18:28;;;;;;;11.85;9.00;;;;;;;17.92;71.99;97156.39;1754111;79;20988;-78
2021/07/22 06:20:56;;;;;;;12.00;8.70;;;;;;;17.91;71.04;97150.84;1764531;79;20951;-78
2021/07/22 06:23:22;;;;;;;10.95;8.70;;;;;;;17.92;71.26;97155.88;1769582;79;20972;-78
2021/07/22 06:25:48;;;;;;;12.28;8.65;;;;;;;17.93;70.80;97152.23;1777239;79;20958;-78
2021/07/22 06:28:14;;;;;;;9.73;8.05;;;;;;;17.92;70.52;97155.88;1768170;79;21008;-77
2021/07/22 06:30:40;;;;;;;9.45;7.70;;;;;;;18.00;70.69;97149.56;1742468;80;20928;-78
2021/07/22 06:33:05;;;;;;;11.12;8.53;;;;;;;18.05;70.73;97154.19;1760758;79;20954;-78
2021/07/22 06:35:31;;;;;;;13.22;8.90;;;;;;;18.08;70.25;97144.08;1775752;79;20951;-78
2021/07/22 06:37:57;;;;;;;13.08;9.38;;;;;;;18.13;70.12;97144.75;1765080;79;20953;-78
2021/07/22 06:40:23;;;;;;;11.75;9.15;;;;;;;18.15;69.97;97146.16;1742776;80;21312;-77
2021/07/22 06:42:49;;;;;;;12.05;8.63;;;;;;;18.16;69.82;97144.33;1746820;80;20898;-78
2021/07/22 06:45:14;;;;;;;12.53;8.58;;;;;;;18.16;70.05;97141.70;1753982;80;21018;-77
2021/07/22 06:47:40;;;;;;;13.95;8.58;;;;;;;18.17;69.70;97136.73;1744468;80;20874;-79
2021/07/22 06:50:08;;;;;;;10.13;7.92;;;;;;;18.18;69.54;97134.39;1743766;80;20946;-79
2021/07/22 06:52:37;;;;;;;10.23;8.15;;;;;;;18.23;69.60;97138.03;1745122;80;20867;-79
2021/07/22 06:55:06;;;;;;;11.88;8.13;;;;;;;18.30;69.16;97141.41;1748620;80;20943;-79
2021/07/22 06:57:32;;;;;;;11.85;8.38;;;;;;;18.35;69.03;97145.22;1726729;81;21297;-79
2021/07/22 06:59:57;;;;;;;9.78;8.40;;;;;;;18.39;69.31;97143.80;1752389;80;20948;-79
2021/07/22 07:02:23;;;;;;;10.58;9.05;;;;;;;18.40;68.64;97144.91;1765046;79;20909;-79
2021/07/22 07:04:49;;;;;;;11.18;8.83;;;;;;;18.40;68.07;97144.09;1759619;80;20982;-79
2021/07/22 07:07:16;;;;;;;13.30;8.75;;;;;;;18.41;67.93;97147.03;1744496;81;20945;-79
2021/07/22 07:09:42;;;;;;;13.18;9.35;;;;;;;18.42;68.27;97146.01;1773077;80;20984;-79
2021/07/22 07:12:09;;;;;;;10.15;8.28;;;;;;;18.44;67.79;97142.65;1768315;80;20922;-79
2021/07/22 07:14:36;;;;;;;12.47;8.75;;;;;;;18.44;68.07;97142.65;1776873;80;21240;-79
2021/07/22 07:17:03;;;;;;;10.58;8.68;;;;;;;18.50;67.80;97141.78;1770880;80;21275;-79
2021/07/22 07:19:29;;;;;;;11.48;7.90;;;;;;;18.55;67.09;97140.66;1749025;80;20912;-79
2021/07/22 07:21:55;;;;;;;16.15;9.83;;;;;;;18.54;68.07;97135.87;1771910;80;21207;-79
2021/07/22 07:24:20;;;;;;;11.50;9.30;;;;;;;18.60;67.76;97137.67;1760551;80;20944;-79
2021/07/22 07:26:46;;;;;;;13.22;9.63;;;;;;;18.62;67.52;97141.91;1765395;80;20920;-79
2021/07/22 07:29:12;;;;;;;11.45;9.35;;;;;;;18.66;66.87;97133.40;1774111;80;21254;-79
2021/07/22 07:31:38;;;;;;;10.28;8.78;;;;;;;18.68;66.69;97138.45;1766407;80;20927;-78
2021/07/22 07:34:04;;;;;;;13.08;8.98;;;;;;;18.69;66.68;97136.91;1770434;80;21010;-78
2021/07/22 07:36:30;;;;;;;12.80;8.68;;;;;;;18.73;66.62;97133.37;1779214;80;21306;-77
2021/07/22 07:38:56;;;;;;;12.50;8.58;;;;;;;18.80;66.89;97132.79;1756463;79;20898;-77
2021/07/22 07:41:21;;;;;;;13.15;9.35;;;;;;;18.83;65.93;97134.98;1768659;79;20897;-78
2021/07/22 07:43:47;;;;;;;11.97;7.80;;;;;;;18.83;66.14;97133.67;1759530;79;21039;-78
2021/07/22 07:46:13;;;;;;;12.90;8.35;;;;;;;18.86;66.55;97139.30;1765393;79;20940;-78
2021/07/22 07:48:39;;;;;;;12.70;8.45;;;;;;;18.88;67.32;97135.17;1765690;79;20951;-78
2021/07/22 07:51:08;;;;;;;11.43;7.75;;;;;;;18.95;66.64;97135.91;1761033;79;20935;-78
2021/07/22 07:53:32;;;;;;;9.60;7.30;;;;;;;19.03;66.17;97130.34;1759870;79;20955;-78
2021/07/22 07:55:58;;;;;;;7.75;6.72;;;;;;;19.12;67.05;97127.73;1758893;79;20987;-78
2021/07/22 07:58:23;;;;;;;12.07;8.60;;;;;;;19.23;67.37;97119.64;1766087;79;21908;-78
2021/07/22 08:00:49;;;;;;;11.50;9.98;;;;;;;19.28;66.62;97114.52;1765055;79;21047;-78
2021/07/22 08:03:20;;;;;;;9.63;8.13;;;;;;;19.36;65.89;97122.63;1755309;79;21337;-78
2021/07/22 08:05:47;;;;;;;12.93;9.00;;;;;;;19.38;65.98;97120.09;1724944;81;20943;-78
2021/07/22 08:08:13;;;;;;;9.23;7.30;;;;;;;19.47;66.00;97118.77;1728706;81;21013;-79
2021/07/22 08:10:41;;;;;;;11.00;7.87;;;;;;;19.59;65.21;97121.51;1729436;81;21234;-79
2021/07/22 08:13:08;;;;;;;11.05;8.33;;;;;;;19.67;64.34;97123.03;1728187;81;20985;-79
2021/07/22 08:15:34;;;;;;;10.05;7.53;;;;;;;19.68;63.43;97122.00;1724988;81;20948;-80
2021/07/22 08:18:01;;;;;;;10.18;7.33;;;;;;;19.76;63.56;97122.52;1733055;81;20960;-80
2021/07/22 08:20:27;;;;;;;9.73;7.42;;;;;;;19.88;63.36;97122.58;1738657;81;21237;-80
2021/07/22 08:22:53;;;;;;;9.05;7.33;;;;;;;19.95;62.81;97118.53;1739961;81;20885;-80
2021/07/22 08:25:18;;;;;;;9.58;7.40;;;;;;;19.98;62.11;97120.20;1741041;81;20896;-78
2021/07/22 08:27:45;;;;;;;9.80;7.10;;;;;;;20.11;62.02;97119.22;1736397;81;20965;-78
2021/07/22 08:30:11;;;;;;;9.65;6.75;;;;;;;20.22;61.85;97123.75;1740699;81;20931;-79
2021/07/22 08:32:37;;;;;;;9.13;7.62;;;;;;;20.38;60.91;97117.83;1736892;81;20963;-78
2021/07/22 08:35:04;;;;;;;10.08;7.45;;;;;;;20.57;60.77;97115.14;1743302;81;21233;-78
2021/07/22 08:37:30;;;;;;;10.10;7.20;;;;;;;20.77;61.00;97108.22;1742435;81;21262;-77
2021/07/22 08:40:00;;;;;;;10.08;7.30;;;;;;;20.98;59.65;97108.45;1741579;81;20947;-78
2021/07/22 08:42:25;;;;;;;10.50;6.40;;;;;;;20.99;59.54;97110.60;1748817;81;20996;-79
2021/07/22 08:44:51;;;;;;;8.35;6.65;;;;;;;21.02;60.63;97104.86;1735253;81;21001;-79
2021/07/22 08:47:16;;;;;;;7.90;6.08;;;;;;;21.24;59.78;97106.38;1737850;81;21224;-78
2021/07/22 08:49:42;;;;;;;6.85;5.80;;;;;;;21.11;58.74;97103.45;1741222;81;20946;-78
2021/07/22 08:52:09;;;;;;;7.53;6.30;;;;;;;21.00;59.54;97098.20;1742202;81;20988;-78
2021/07/22 08:54:36;;;;;;;8.40;6.65;;;;;;;20.90;58.65;97100.88;1693654;82;20994;-78
2021/07/22 08:57:02;;;;;;;8.43;6.60;;;;;;;20.81;58.42;97090.88;1732746;81;21023;-78
2021/07/22 08:59:32;;;;;;;9.23;5.50;;;;;;;20.80;59.08;97096.67;1697379;82;21036;-79
2021/07/22 09:01:59;;;;;;;8.68;5.67;;;;;;;21.01;58.96;97097.16;1697363;81;21011;-79
2021/07/22 09:04:25;;;;;;;7.58;6.12;;;;;;;21.08;58.97;97095.99;1735801;80;21835;-79
2021/07/22 09:06:51;;;;;;;7.50;5.60;;;;;;;21.20;58.98;97088.06;1734778;81;21010;-78
2021/07/22 09:09:17;;;;;;;11.10;7.97;;;;;;;21.47;59.64;97086.53;1741554;80;20981;-80
2021/07/22 09:11:57;;;;;;;8.98;7.00;;;;;;;21.66;57.80;97090.37;1749464;80;20937;-79
2021/07/22 09:14:24;;;;;;;9.35;8.20;;;;;;;21.81;58.68;97088.82;1756950;80;20912;-79
2021/07/22 09:16:50;;;;;;;13.08;7.35;;;;;;;21.98;57.47;97084.10;1760109;80;20953;-80
2021/07/22 09:19:38;;;;;;;10.93;6.80;;;;;;;22.02;55.93;97087.35;1752365;80;20927;-80
2021/07/22 09:22:07;;;;;;;8.38;7.45;;;;;;;21.86;55.24;97084.94;1756790;80;21268;-81
2021/07/22 09:24:52;;;;;;;9.20;7.00;;;;;;;21.70;55.48;97084.89;1760413;80;20971;-80
2021/07/22 09:27:41;;;;;;;9.60;7.15;;;;;;;21.53;55.54;97083.50;1748866;80;21280;-80
2021/07/22 09:30:19;;;;;;;6.92;5.47;;;;;;;21.37;55.82;97091.63;1779066;79;21286;-79
2021/07/22 09:32:48;;;;;;;6.62;5.42;;;;;;;21.34;56.76;97090.78;1747596;81;20953;-79
2021/07/22 09:35:23;;;;;;;9.53;7.42;;;;;;;21.35;57.87;97090.27;1743745;80;20915;-79
2021/07/22 09:37:54;;;;;;;9.48;5.42;;;;;;;21.24;56.50;97094.00;1737091;80;20950;-79
2021/07/22 09:40:31;;;;;;;7.25;6.00;;;;;;;21.17;58.47;97092.50;1746800;80;20883;-80
2021/07/22 09:42:57;;;;;;;7.17;5.47;;;;;;;21.26;58.37;97093.77;1746902;80;20907;-79
2021/07/22 09:45:37;;;;;;;8.18;5.72;;;;;;;21.48;57.39;97082.08;1725978;81;20907;-79
2021/07/22 09:48:08;;;;;;;7.05;4.90;;;;;;;21.45;55.39;97091.26;1744048;80;20974;-80
2021/07/22 09:50:43;;;;;;;7.87;5.30;;;;;;;21.62;55.26;97079.44;1757241;80;20987;-79
2021/07/22 09:53:13;;;;;;;7.95;5.28;;;;;;;21.78;54.39;97071.27;1753165;80;20906;-80
2021/07/22 09:55:42;;;;;;;7.72;5.67;;;;;;;22.04;54.02;97072.56;1760702;81;20932;-80
2021/07/22 09:58:10;;;;;;;7.85;6.50;;;;;;;22.28;53.44;97068.77;1757363;80;20976;-80
2021/07/22 10:00:49;;;;;;;7.78;5.37;;;;;;;22.51;53.96;97072.33;1742205;81;20931;-80
2021/07/22 10:03:17;;;;;;;7.33;5.45;;;;;;;22.72;54.14;97067.09;1761404;78;20929;-80
2021/07/22 10:05:46;;;;;;;5.15;4.53;;;;;;;22.85;53.16;97075.27;1739646;81;21030;-80
2021/07/22 10:08:19;;;;;;;6.97;4.85;;;;;;;22.80;54.95;97071.72;1706781;83;21008;-80
2021/07/22 10:10:51;;;;;;;5.97;4.65;;;;;;;22.58;55.04;97070.31;1697755;83;21337;-80
2021/07/22 10:13:18;;;;;;;7.72;4.83;;;;;;;22.37;55.66;97073.16;1705739;83;20920;-80
2021/07/22 10:15:45;;;;;;;6.70;5.25;;;;;;;22.20;56.98;97071.02;1689489;83;20960;-79
2021/07/22 10:18:11;;;;;;;7.50;4.37;;;;;;;22.07;57.43;97067.61;1732826;82;20947;-80
2021/07/22 10:20:37;;;;;;;6.00;4.58;;;;;;;22.01;58.12;97070.39;1710140;82;20946;-80
2021/07/22 10:23:03;;;;;;;5.83;5.22;;;;;;;21.93;58.29;97069.44;1743541;82;20917;-79
2021/07/22 10:25:29;;;;;;;7.58;5.70;;;;;;;21.88;58.96;97067.51;1731828;81;20973;-79
2021/07/22 10:27:56;;;;;;;8.10;5.55;;;;;;;21.90;59.15;97065.42;1738296;81;20912;-79
2021/07/22 10:30:23;;;;;;;7.78;5.60;;;;;;;21.93;60.22;97066.79;1738567;81;21050;-79
2021/07/22 10:32:55;;;;;;;6.37;5.50;;;;;;;21.93;59.36;97069.44;1737326;81;20984;-79
2021/07/22 10:35:26;;;;;;;8.58;6.47;;;;;;;21.92;60.12;97067.31;1737107;81;20936;-79
2021/07/22 10:38:20;;;;;;;8.38;5.80;;;;;;;21.84;58.12;97069.83;1739752;81;20971;-80
2021/07/22 10:40:54;;;;;;;9.85;5.85;;;;;;;21.85;59.74;97075.92;1747402;81;20936;-80
2021/07/22 10:43:41;;;;;;;8.68;5.65;;;;;;;21.71;57.78;97079.36;1737790;81;21063;-79
2021/07/22 10:46:17;;;;;;;8.30;5.97;;;;;;;21.57;58.75;97080.14;1714077;82;20916;-80
2021/07/22 10:48:44;;;;;;;7.00;5.60;;;;;;;21.46;59.15;97079.64;1733395;81;20959;-79
2021/07/22 10:51:13;;;;;;;6.92;5.47;;;;;;;21.37;60.64;97085.02;1734318;81;20990;-80
2021/07/22 10:53:52;;;;;;;8.70;6.15;;;;;;;21.31;61.08;97083.29;1713999;82;20952;-80
2021/07/22 10:56:26;;;;;;;6.90;6.20;;;;;;;21.21;59.72;97087.03;1703795;82;21003;-79
2021/07/22 10:58:56;;;;;;;10.18;6.40;;;;;;;21.13;60.47;97087.37;1714232;82;21035;-79
2021/07/22 11:01:46;;;;;;;9.40;6.55;;;;;;;21.02;59.71;97081.59;1681534;82;20917;-80
2021/07/22 11:04:28;;;;;;;7.15;5.83;;;;;;;20.90;60.00;97083.71;1686649;82;21073;-78
2021/07/22 11:07:01;;;;;;;7.30;6.03;;;;;;;20.84;61.26;97079.36;1778825;79;20998;-80
2021/07/22 11:09:47;;;;;;;11.70;6.25;;;;;;;20.82;61.36;97076.11;1771755;79;20947;-80
2021/07/22 11:12:45;;;;;;;7.05;5.75;;;;;;;20.78;61.48;97072.33;1647973;79;20968;-79
2021/07/22 11:15:37;;;;;;;7.58;5.47;;;;;;;20.78;61.59;97072.85;1776480;79;21248;-78
2021/07/22 11:19:02;;;;;;;8.35;5.90;;;;;;;20.85;62.54;97080.16;1766471;79;20950;-78
2021/07/22 11:21:35;;;;;;;7.70;5.90;;;;;;;20.81;62.77;97064.46;1767257;79;20993;-78
2021/07/22 11:24:18;;;;;;;5.95;5.28;;;;;;;20.92;62.86;97076.36;1773650;79;21010;-78
2021/07/22 11:26:48;;;;;;;7.40;6.37;;;;;;;20.87;62.95;97077.58;1771853;79;21375;-79
2021/07/22 11:29:16;;;;;;;8.58;6.60;;;;;;;20.89;62.76;97078.14;1768125;79;21074;-79
2021/07/22 11:31:54;;;;;;;8.25;6.20;;;;;;;20.88;62.70;97077.05;1784078;79;21350;-80
2021/07/22 11:34:30;;;;;;;7.67;6.80;;;;;;;20.90;62.85;97077.11;1781007;79;20903;-79